Wilson Clyde — 8PRV — position and weather

sailwx.info

Track history (hours):
 
Tides and Currents Weather Stations Pressure Air Temp Water Temp Dewpoint Dewpoint Depression Visibility Wind Speed Wind Dir Waves Ship Positions

Wilson Clyde

Last reported at 2015-May-23 02:33 UTC. Time now 2015-May-23 02:41 UTC.
Position N 52°49' E 001°49'.

Length 100 m; draft 5.8 m.

Type: Ship. MMSI: 314187000.

Date/timePositionNaut miles runAvg speedWind from/ knotsBaromVisibWave heightAir tempDewpointWater temp
2015-May-23 02:33N 52°49' E 001°49'1010.2
2015-May-23 01:33N 52°41' E 002°00'9 9.3
2015-May-23 00:33N 52°34' E 002°10'48 9.7
2015-May-22 19:34N 51°58' E 003°02'1110.9
2015-May-22 18:33N 51°48' E 003°11'10 9.7
2015-May-22 17:33N 51°40' E 003°20'1211.8
2015-May-22 16:33N 51°30' E 003°29'8 7.8
2015-May-22 15:34N 51°26' E 003°40'8 8.4
2015-May-22 14:34N 51°20' E 003°49'1 1.1
2015-May-22 13:33N 51°19' E 003°50'3 2.8
2015-May-22 12:33N 51°16' E 003°51'0 0.0
2015-May-22 11:33N 51°16' E 003°51'0 0.0
2015-May-22 10:30N 51°16' E 003°51'0 0.0
2015-May-22 09:33N 51°16' E 003°51'0 0.0
2015-May-22 08:33N 51°16' E 003°51'0 0.0
2015-May-22 07:33N 51°16' E 003°51'0 0.0
2015-May-22 06:27N 51°16' E 003°51'0 0.0
2015-May-22 05:33N 51°16' E 003°51'0 0.0
2015-May-22 04:33N 51°16' E 003°51'0 0.0
2015-May-22 03:24N 51°16' E 003°51'0 0.0
2015-May-22 02:30N 51°16' E 003°51'0 0.0
2015-May-22 01:24N 51°16' E 003°51'0 0.0
2015-May-22 00:21N 51°16' E 003°51'0 0.0
2015-May-21 23:33N 51°16' E 003°51'0 0.0
2015-May-21 22:33N 51°16' E 003°51'0 0.0
2015-May-21 21:27N 51°16' E 003°51'0 0.0
2015-May-21 20:33N 51°16' E 003°51'1 0.6
2015-May-21 19:33N 51°17' E 003°50'2 1.8
2015-May-21 18:33N 51°19' E 003°50'0 0.0
2015-May-21 17:33N 51°19' E 003°50'1 1.2
2015-May-21 16:34N 51°20' E 003°49'1 0.8
2015-May-21 15:34N 51°20' E 003°49'9 9.4
2015-May-21 14:34N 51°26' E 003°36'9 8.5
2015-May-21 13:33N 51°31' E 003°26'12 8.5
2015-May-21 12:06N 51°42' E 003°16'6110.7
2015-May-21 06:25N 52°30' E 002°16'1210.7
2015-May-21 05:18N 52°39' E 002°03'710.1
2015-May-21 04:34N 52°45' E 001°55'10 9.5
2015-May-21 03:33N 52°52' E 001°44'9 9.3
2015-May-21 02:33N 52°58' E 001°33'1010.3
2015-May-21 01:33N 53°06' E 001°21'3711.2
2015-May-20 22:13N 53°27' E 000°30'811.4
2015-May-20 21:33N 53°30' E 000°18'1111.2
2015-May-20 20:33N 53°35' E 000°01'8 8.1
2015-May-20 19:33N 53°38' W 000°11'0 0.2
2015-May-20 18:33N 53°38' W 000°12'0 0.0
2015-May-20 17:33N 53°38' W 000°12'0 0.1
2015-May-20 16:33N 53°38' W 000°12'0 0.0
2015-May-20 15:30N 53°38' W 000°12'0 0.0
2015-May-20 14:30N 53°38' W 000°12'0 0.0
2015-May-20 13:33N 53°38' W 000°12'0 0.0
2015-May-20 12:33N 53°38' W 000°12'0 0.0
2015-May-20 11:33N 53°38' W 000°12'0 0.0
2015-May-20 10:33N 53°38' W 000°12'0 0.0
2015-May-20 09:33N 53°38' W 000°12'0 0.0
2015-May-20 08:27N 53°38' W 000°12'0 0.0
2015-May-20 07:33N 53°38' W 000°12'0 0.0
2015-May-20 06:33N 53°38' W 000°12'0 0.0
2015-May-20 05:33N 53°38' W 000°12'0 0.0
2015-May-20 04:33N 53°38' W 000°12'0 0.0
2015-May-20 03:30N 53°38' W 000°12'0 0.0
2015-May-20 02:33N 53°38' W 000°12'0 0.0
2015-May-20 01:33N 53°38' W 000°12'0 0.0
2015-May-20 00:33N 53°38' W 000°12'0 0.0
2015-May-19 23:30N 53°38' W 000°12'0 0.4
2015-May-19 22:33N 53°38' W 000°11'5 4.6
2015-May-19 21:34N 53°37' W 000°04'7 7.3
2015-May-19 20:34N 53°34' E 000°07'9 9.1
2015-May-19 19:33N 53°33' E 000°23'7 6.9
2015-May-19 18:32N 53°30' E 000°33'38 7.7
2015-May-19 13:33N 53°05' E 001°23'8 8.4
2015-May-19 12:33N 52°59' E 001°32'8 8.5
2015-May-19 11:33N 52°53' E 001°42'9 8.5
2015-May-19 10:33N 52°47' E 001°52'8 7.8
2015-May-19 09:33N 52°41' E 001°60'8 7.6
2015-May-19 08:33N 52°35' E 002°08'8 8.2
2015-May-19 07:32N 52°29' E 002°18'56 9.2
2015-May-19 01:26N 51°44' E 003°13'9 7.8
2015-May-19 00:18N 51°37' E 003°22'7 8.8
2015-May-18 23:33N 51°31' E 003°26'8 8.1
2015-May-18 22:33N 51°26' E 003°36'7 7.1
2015-May-18 21:33N 51°22' E 003°45'3 3.3
2015-May-18 20:33N 51°20' E 003°49'2 1.8
2015-May-18 19:33N 51°18' E 003°50'2 1.6
2015-May-18 18:29N 51°16' E 003°51'0 0.0
2015-May-18 17:20N 51°16' E 003°51'0 0.0
2015-May-18 16:32N 51°16' E 003°51'0 0.0
2015-May-18 15:29N 51°16' E 003°51'0 0.0
2015-May-18 14:32N 51°16' E 003°51'0 0.0
2015-May-18 13:29N 51°16' E 003°51'0 0.0
2015-May-18 12:32N 51°16' E 003°51'0 0.0
2015-May-18 11:05N 51°16' E 003°51'0 0.0
2015-May-18 10:29N 51°16' E 003°51'0 0.0
2015-May-18 09:32N 51°16' E 003°51'0 0.0
2015-May-18 08:32N 51°16' E 003°51'0 0.0
2015-May-18 07:32N 51°16' E 003°51'0 0.0
2015-May-18 06:26N 51°16' E 003°51'0 0.0
2015-May-18 05:32N 51°16' E 003°51'0 0.0
2015-May-18 04:32N 51°16' E 003°51'0 0.0
2015-May-18 03:29N 51°16' E 003°51'0 0.0
2015-May-18 02:26N 51°16' E 003°51'0 0.0
2015-May-18 01:29N 51°16' E 003°51'0 0.0
2015-May-18 00:32N 51°16' E 003°51'0 0.0
2015-May-17 23:32N 51°16' E 003°51'0 0.0
2015-May-17 22:32N 51°16' E 003°51'0 0.0
2015-May-17 21:32N 51°16' E 003°51'0 0.0
2015-May-17 20:32N 51°16' E 003°51'0 0.0
2015-May-17 19:32N 51°16' E 003°51'0 0.0
2015-May-17 18:32N 51°16' E 003°51'0 0.0
2015-May-17 17:32N 51°16' E 003°51'0 0.0
2015-May-17 16:29N 51°16' E 003°51'0 0.0
2015-May-17 15:32N 51°16' E 003°51'0 0.0
2015-May-17 14:26N 51°16' E 003°51'3 3.1
2015-May-17 13:33N 51°19' E 003°50'0 0.2
2015-May-17 12:33N 51°19' E 003°49'0 0.0
2015-May-17 11:33N 51°19' E 003°49'0 0.0
2015-May-17 10:33N 51°19' E 003°49'0 0.0
2015-May-17 09:33N 51°19' E 003°49'0 0.0
2015-May-17 08:33N 51°19' E 003°49'0 0.0
2015-May-17 07:30N 51°19' E 003°49'0 0.0
2015-May-17 06:33N 51°19' E 003°49'0 0.0
2015-May-17 05:33N 51°19' E 003°49'0 0.0
2015-May-17 04:33N 51°19' E 003°49'0 0.0
2015-May-17 03:33N 51°19' E 003°49'0 0.0
2015-May-17 02:33N 51°19' E 003°49'0 0.0
2015-May-17 01:33N 51°19' E 003°49'0 0.0
2015-May-17 00:33N 51°19' E 003°49'0 0.0
2015-May-16 23:33N 51°19' E 003°49'0 0.0
2015-May-16 22:33N 51°19' E 003°49'0 0.0
2015-May-16 21:33N 51°19' E 003°49'0 0.0
2015-May-16 20:33N 51°19' E 003°49'0 0.0
2015-May-16 19:33N 51°19' E 003°49'0 0.0
2015-May-16 18:33N 51°19' E 003°49'0 0.0
2015-May-16 17:33N 51°19' E 003°49'0 0.0
2015-May-16 16:33N 51°19' E 003°49'0 0.0
2015-May-16 15:30N 51°19' E 003°49'0 0.0
2015-May-16 14:33N 51°19' E 003°49'0 0.0
2015-May-16 13:33N 51°19' E 003°49'0 0.0
2015-May-16 12:33N 51°19' E 003°49'0 0.0
2015-May-16 11:33N 51°19' E 003°49'0 0.0
2015-May-16 10:33N 51°19' E 003°49'0 0.0
2015-May-16 09:30N 51°19' E 003°49'0 0.0
2015-May-16 08:33N 51°19' E 003°49'0 0.0
2015-May-16 07:33N 51°19' E 003°49'0 0.0
2015-May-16 06:33N 51°19' E 003°49'0 0.0
2015-May-16 05:33N 51°19' E 003°49'0 0.0
2015-May-16 04:30N 51°19' E 003°49'0 0.0
2015-May-16 03:31N 51°19' E 003°49'0 0.0
2015-May-16 02:33N 51°19' E 003°49'0 0.0
2015-May-16 01:33N 51°19' E 003°49'0 0.0
2015-May-16 00:33N 51°19' E 003°49'0 0.0
2015-May-15 23:33N 51°19' E 003°49'0 0.0
2015-May-15 22:33N 51°19' E 003°49'0 0.0
2015-May-15 21:33N 51°19' E 003°49'0 0.0
2015-May-15 20:33N 51°19' E 003°49'0 0.0
2015-May-15 19:33N 51°19' E 003°49'1 1.3
2015-May-15 18:33N 51°20' E 003°49'10 9.6
2015-May-15 17:34N 51°25' E 004°02'1010.3
2015-May-15 16:34N 51°20' E 004°16'4 3.9
2015-May-15 15:33N 51°17' E 004°20'1 0.6
2015-May-15 14:22N 51°17' E 004°21'0 0.0
2015-May-15 13:31N 51°17' E 004°21'0 0.0
2015-May-15 12:28N 51°17' E 004°21'0 0.0
2015-May-15 11:31N 51°17' E 004°21'0 0.0
2015-May-15 10:28N 51°17' E 004°21'0 0.0
2015-May-15 09:28N 51°17' E 004°21'0 0.0
2015-May-15 08:31N 51°17' E 004°21'0 0.0
2015-May-15 07:28N 51°17' E 004°21'0 0.0
2015-May-15 06:31N 51°17' E 004°21'0 0.0
2015-May-15 05:31N 51°17' E 004°21'0 0.0
2015-May-15 03:31N 51°17' E 004°21'0 0.0
2015-May-15 02:31N 51°17' E 004°21'0 0.0
2015-May-15 01:16N 51°17' E 004°21'0 0.0
2015-May-15 00:13N 51°17' E 004°21'0 0.0
2015-May-14 23:31N 51°17' E 004°21'0 0.0
2015-May-14 22:28N 51°17' E 004°21'0 0.0
2015-May-14 21:28N 51°17' E 004°21'0 0.0
2015-May-14 20:31N 51°17' E 004°21'0 0.0
2015-May-14 19:28N 51°17' E 004°21'0 0.0
2015-May-14 18:22N 51°17' E 004°21'0 0.0
2015-May-14 17:28N 51°17' E 004°21'0 0.0
2015-May-14 16:28N 51°17' E 004°21'0 0.0
2015-May-14 15:19N 51°17' E 004°21'0 0.0
2015-May-14 14:22N 51°17' E 004°21'0 0.0
2015-May-14 13:31N 51°17' E 004°21'3 3.5
2015-May-14 12:33N 51°20' E 004°18'1 1.2
2015-May-14 11:33N 51°21' E 004°17'2 1.9
2015-May-14 10:33N 51°21' E 004°14'1111.1
2015-May-14 09:34N 51°27' E 003°59'1010.3
2015-May-14 08:34N 51°24' E 003°43'1211.8
2015-May-14 07:33N 51°24' E 003°24'1212.0
2015-May-14 06:32N 51°22' E 003°05'1010.2
2015-May-14 05:33N 51°21' E 002°49'9 8.8
2015-May-14 04:33N 51°22' E 002°35'10 9.1
2015-May-14 03:29N 51°19' E 002°20'9 9.1
2015-May-14 02:32N 51°14' E 002°08'9 9.2
2015-May-14 01:33N 51°10' E 001°55'9 8.8
2015-May-14 00:32N 51°05' E 001°44'9 8.8
2015-May-13 23:33N 50°58' E 001°35'9 9.0
2015-May-13 22:33N 50°50' E 001°28'2110.3
2015-May-13 20:33N 50°34' E 001°06'2310.5
2015-May-13 18:22N 50°25' E 000°34'1011.6
2015-May-13 17:32N 50°23' E 000°19'5212.2
2015-May-13 13:16N 50°09' W 000°60'1710.1
2015-May-13 11:33N 50°05' W 001°26'9 8.7
2015-May-13 10:32N 50°03' W 001°39'8 7.9
2015-May-13 09:28N 50°01' W 001°52'18 7.9
2015-May-13 07:09N 49°55' W 002°19'16 9.8
2015-May-13 05:31N 49°51' W 002°43'  
Track history (hours):
 
Tides and Currents Weather Stations Pressure Air Temp Water Temp Dewpoint Dewpoint Depression Visibility Wind Speed Wind Dir Waves Ship Positions

Wilson Clyde

Last reported at 2015-May-23 02:33 UTC. Time now 2015-May-23 02:41 UTC.
Position N 52°49' E 001°49'.

Length 100 m; draft 5.8 m.

Type: Ship. MMSI: 314187000.

Date/timePositionNaut miles runAvg speedWind from/ knotsBaromVisibWave heightAir tempDewpointWater temp
2015-May-23 02:33N 52°49' E 001°49'1010.2
2015-May-23 01:33N 52°41' E 002°00'9 9.3
2015-May-23 00:33N 52°34' E 002°10'48 9.7
2015-May-22 19:34N 51°58' E 003°02'1110.9
2015-May-22 18:33N 51°48' E 003°11'10 9.7
2015-May-22 17:33N 51°40' E 003°20'1211.8
2015-May-22 16:33N 51°30' E 003°29'8 7.8
2015-May-22 15:34N 51°26' E 003°40'8 8.4
2015-May-22 14:34N 51°20' E 003°49'1 1.1
2015-May-22 13:33N 51°19' E 003°50'3 2.8
2015-May-22 12:33N 51°16' E 003°51'0 0.0
2015-May-22 11:33N 51°16' E 003°51'0 0.0
2015-May-22 10:30N 51°16' E 003°51'0 0.0
2015-May-22 09:33N 51°16' E 003°51'0 0.0
2015-May-22 08:33N 51°16' E 003°51'0 0.0
2015-May-22 07:33N 51°16' E 003°51'0 0.0
2015-May-22 06:27N 51°16' E 003°51'0 0.0
2015-May-22 05:33N 51°16' E 003°51'0 0.0
2015-May-22 04:33N 51°16' E 003°51'0 0.0
2015-May-22 03:24N 51°16' E 003°51'0 0.0
2015-May-22 02:30N 51°16' E 003°51'0 0.0
2015-May-22 01:24N 51°16' E 003°51'0 0.0
2015-May-22 00:21N 51°16' E 003°51'0 0.0
2015-May-21 23:33N 51°16' E 003°51'0 0.0
2015-May-21 22:33N 51°16' E 003°51'0 0.0
2015-May-21 21:27N 51°16' E 003°51'0 0.0
2015-May-21 20:33N 51°16' E 003°51'1 0.6
2015-May-21 19:33N 51°17' E 003°50'2 1.8
2015-May-21 18:33N 51°19' E 003°50'0 0.0
2015-May-21 17:33N 51°19' E 003°50'1 1.2
2015-May-21 16:34N 51°20' E 003°49'1 0.8
2015-May-21 15:34N 51°20' E 003°49'9 9.4
2015-May-21 14:34N 51°26' E 003°36'9 8.5
2015-May-21 13:33N 51°31' E 003°26'12 8.5
2015-May-21 12:06N 51°42' E 003°16'6110.7
2015-May-21 06:25N 52°30' E 002°16'1210.7
2015-May-21 05:18N 52°39' E 002°03'710.1
2015-May-21 04:34N 52°45' E 001°55'10 9.5
2015-May-21 03:33N 52°52' E 001°44'9 9.3
2015-May-21 02:33N 52°58' E 001°33'1010.3
2015-May-21 01:33N 53°06' E 001°21'3711.2
2015-May-20 22:13N 53°27' E 000°30'811.4
2015-May-20 21:33N 53°30' E 000°18'1111.2
2015-May-20 20:33N 53°35' E 000°01'8 8.1
2015-May-20 19:33N 53°38' W 000°11'0 0.2
2015-May-20 18:33N 53°38' W 000°12'0 0.0
2015-May-20 17:33N 53°38' W 000°12'0 0.1
2015-May-20 16:33N 53°38' W 000°12'0 0.0
2015-May-20 15:30N 53°38' W 000°12'0 0.0
2015-May-20 14:30N 53°38' W 000°12'0 0.0
2015-May-20 13:33N 53°38' W 000°12'0 0.0
2015-May-20 12:33N 53°38' W 000°12'0 0.0
2015-May-20 11:33N 53°38' W 000°12'0 0.0
2015-May-20 10:33N 53°38' W 000°12'0 0.0
2015-May-20 09:33N 53°38' W 000°12'0 0.0
2015-May-20 08:27N 53°38' W 000°12'0 0.0
2015-May-20 07:33N 53°38' W 000°12'0 0.0
2015-May-20 06:33N 53°38' W 000°12'0 0.0
2015-May-20 05:33N 53°38' W 000°12'0 0.0
2015-May-20 04:33N 53°38' W 000°12'0 0.0
2015-May-20 03:30N 53°38' W 000°12'0 0.0
2015-May-20 02:33N 53°38' W 000°12'0 0.0
2015-May-20 01:33N 53°38' W 000°12'0 0.0
2015-May-20 00:33N 53°38' W 000°12'0 0.0
2015-May-19 23:30N 53°38' W 000°12'0 0.4
2015-May-19 22:33N 53°38' W 000°11'5 4.6
2015-May-19 21:34N 53°37' W 000°04'7 7.3
2015-May-19 20:34N 53°34' E 000°07'9 9.1
2015-May-19 19:33N 53°33' E 000°23'7 6.9
2015-May-19 18:32N 53°30' E 000°33'38 7.7
2015-May-19 13:33N 53°05' E 001°23'8 8.4
2015-May-19 12:33N 52°59' E 001°32'8 8.5
2015-May-19 11:33N 52°53' E 001°42'9 8.5
2015-May-19 10:33N 52°47' E 001°52'8 7.8
2015-May-19 09:33N 52°41' E 001°60'8 7.6
2015-May-19 08:33N 52°35' E 002°08'8 8.2
2015-May-19 07:32N 52°29' E 002°18'56 9.2
2015-May-19 01:26N 51°44' E 003°13'9 7.8
2015-May-19 00:18N 51°37' E 003°22'7 8.8
2015-May-18 23:33N 51°31' E 003°26'8 8.1
2015-May-18 22:33N 51°26' E 003°36'7 7.1
2015-May-18 21:33N 51°22' E 003°45'3 3.3
2015-May-18 20:33N 51°20' E 003°49'2 1.8
2015-May-18 19:33N 51°18' E 003°50'2 1.6
2015-May-18 18:29N 51°16' E 003°51'0 0.0
2015-May-18 17:20N 51°16' E 003°51'0 0.0
2015-May-18 16:32N 51°16' E 003°51'0 0.0
2015-May-18 15:29N 51°16' E 003°51'0 0.0
2015-May-18 14:32N 51°16' E 003°51'0 0.0
2015-May-18 13:29N 51°16' E 003°51'0 0.0
2015-May-18 12:32N 51°16' E 003°51'0 0.0
2015-May-18 11:05N 51°16' E 003°51'0 0.0
2015-May-18 10:29N 51°16' E 003°51'0 0.0
2015-May-18 09:32N 51°16' E 003°51'0 0.0
2015-May-18 08:32N 51°16' E 003°51'0 0.0
2015-May-18 07:32N 51°16' E 003°51'0 0.0
2015-May-18 06:26N 51°16' E 003°51'0 0.0
2015-May-18 05:32N 51°16' E 003°51'0 0.0
2015-May-18 04:32N 51°16' E 003°51'0 0.0
2015-May-18 03:29N 51°16' E 003°51'0 0.0
2015-May-18 02:26N 51°16' E 003°51'0 0.0
2015-May-18 01:29N 51°16' E 003°51'0 0.0
2015-May-18 00:32N 51°16' E 003°51'0 0.0
2015-May-17 23:32N 51°16' E 003°51'0 0.0
2015-May-17 22:32N 51°16' E 003°51'0 0.0
2015-May-17 21:32N 51°16' E 003°51'0 0.0
2015-May-17 20:32N 51°16' E 003°51'0 0.0
2015-May-17 19:32N 51°16' E 003°51'0 0.0
2015-May-17 18:32N 51°16' E 003°51'0 0.0
2015-May-17 17:32N 51°16' E 003°51'0 0.0
2015-May-17 16:29N 51°16' E 003°51'0 0.0
2015-May-17 15:32N 51°16' E 003°51'0 0.0
2015-May-17 14:26N 51°16' E 003°51'3 3.1
2015-May-17 13:33N 51°19' E 003°50'0 0.2
2015-May-17 12:33N 51°19' E 003°49'0 0.0
2015-May-17 11:33N 51°19' E 003°49'0 0.0
2015-May-17 10:33N 51°19' E 003°49'0 0.0
2015-May-17 09:33N 51°19' E 003°49'0 0.0
2015-May-17 08:33N 51°19' E 003°49'0 0.0
2015-May-17 07:30N 51°19' E 003°49'0 0.0
2015-May-17 06:33N 51°19' E 003°49'0 0.0
2015-May-17 05:33N 51°19' E 003°49'0 0.0
2015-May-17 04:33N 51°19' E 003°49'0 0.0
2015-May-17 03:33N 51°19' E 003°49'0 0.0
2015-May-17 02:33N 51°19' E 003°49'0 0.0
2015-May-17 01:33N 51°19' E 003°49'0 0.0
2015-May-17 00:33N 51°19' E 003°49'0 0.0
2015-May-16 23:33N 51°19' E 003°49'0 0.0
2015-May-16 22:33N 51°19' E 003°49'0 0.0
2015-May-16 21:33N 51°19' E 003°49'0 0.0
2015-May-16 20:33N 51°19' E 003°49'0 0.0
2015-May-16 19:33N 51°19' E 003°49'0 0.0
2015-May-16 18:33N 51°19' E 003°49'0 0.0
2015-May-16 17:33N 51°19' E 003°49'0 0.0
2015-May-16 16:33N 51°19' E 003°49'0 0.0
2015-May-16 15:30N 51°19' E 003°49'0 0.0
2015-May-16 14:33N 51°19' E 003°49'0 0.0
2015-May-16 13:33N 51°19' E 003°49'0 0.0
2015-May-16 12:33N 51°19' E 003°49'0 0.0
2015-May-16 11:33N 51°19' E 003°49'0 0.0
2015-May-16 10:33N 51°19' E 003°49'0 0.0
2015-May-16 09:30N 51°19' E 003°49'0 0.0
2015-May-16 08:33N 51°19' E 003°49'0 0.0
2015-May-16 07:33N 51°19' E 003°49'0 0.0
2015-May-16 06:33N 51°19' E 003°49'0 0.0
2015-May-16 05:33N 51°19' E 003°49'0 0.0
2015-May-16 04:30N 51°19' E 003°49'0 0.0
2015-May-16 03:31N 51°19' E 003°49'0 0.0
2015-May-16 02:33N 51°19' E 003°49'0 0.0
2015-May-16 01:33N 51°19' E 003°49'0 0.0
2015-May-16 00:33N 51°19' E 003°49'0 0.0
2015-May-15 23:33N 51°19' E 003°49'0 0.0
2015-May-15 22:33N 51°19' E 003°49'0 0.0
2015-May-15 21:33N 51°19' E 003°49'0 0.0
2015-May-15 20:33N 51°19' E 003°49'0 0.0
2015-May-15 19:33N 51°19' E 003°49'1 1.3
2015-May-15 18:33N 51°20' E 003°49'10 9.6
2015-May-15 17:34N 51°25' E 004°02'1010.3
2015-May-15 16:34N 51°20' E 004°16'4 3.9
2015-May-15 15:33N 51°17' E 004°20'1 0.6
2015-May-15 14:22N 51°17' E 004°21'0 0.0
2015-May-15 13:31N 51°17' E 004°21'0 0.0
2015-May-15 12:28N 51°17' E 004°21'0 0.0
2015-May-15 11:31N 51°17' E 004°21'0 0.0
2015-May-15 10:28N 51°17' E 004°21'0 0.0
2015-May-15 09:28N 51°17' E 004°21'0 0.0
2015-May-15 08:31N 51°17' E 004°21'0 0.0
2015-May-15 07:28N 51°17' E 004°21'0 0.0
2015-May-15 06:31N 51°17' E 004°21'0 0.0
2015-May-15 05:31N 51°17' E 004°21'0 0.0
2015-May-15 03:31N 51°17' E 004°21'0 0.0
2015-May-15 02:31N 51°17' E 004°21'0 0.0
2015-May-15 01:16N 51°17' E 004°21'0 0.0
2015-May-15 00:13N 51°17' E 004°21'0 0.0
2015-May-14 23:31N 51°17' E 004°21'0 0.0
2015-May-14 22:28N 51°17' E 004°21'0 0.0
2015-May-14 21:28N 51°17' E 004°21'0 0.0
2015-May-14 20:31N 51°17' E 004°21'0 0.0
2015-May-14 19:28N 51°17' E 004°21'0 0.0
2015-May-14 18:22N 51°17' E 004°21'0 0.0
2015-May-14 17:28N 51°17' E 004°21'0 0.0
2015-May-14 16:28N 51°17' E 004°21'0 0.0
2015-May-14 15:19N 51°17' E 004°21'0 0.0
2015-May-14 14:22N 51°17' E 004°21'0 0.0
2015-May-14 13:31N 51°17' E 004°21'3 3.5
2015-May-14 12:33N 51°20' E 004°18'1 1.2
2015-May-14 11:33N 51°21' E 004°17'2 1.9
2015-May-14 10:33N 51°21' E 004°14'1111.1
2015-May-14 09:34N 51°27' E 003°59'1010.3
2015-May-14 08:34N 51°24' E 003°43'1211.8
2015-May-14 07:33N 51°24' E 003°24'1212.0
2015-May-14 06:32N 51°22' E 003°05'1010.2
2015-May-14 05:33N 51°21' E 002°49'9 8.8
2015-May-14 04:33N 51°22' E 002°35'10 9.1
2015-May-14 03:29N 51°19' E 002°20'9 9.1
2015-May-14 02:32N 51°14' E 002°08'9 9.2
2015-May-14 01:33N 51°10' E 001°55'9 8.8
2015-May-14 00:32N 51°05' E 001°44'9 8.8
2015-May-13 23:33N 50°58' E 001°35'9 9.0
2015-May-13 22:33N 50°50' E 001°28'2110.3
2015-May-13 20:33N 50°34' E 001°06'2310.5
2015-May-13 18:22N 50°25' E 000°34'1011.6
2015-May-13 17:32N 50°23' E 000°19'5212.2
2015-May-13 13:16N 50°09' W 000°60'1710.1
2015-May-13 11:33N 50°05' W 001°26'9 8.7
2015-May-13 10:32N 50°03' W 001°39'8 7.9
2015-May-13 09:28N 50°01' W 001°52'18 7.9
2015-May-13 07:09N 49°55' W 002°19'16 9.8
2015-May-13 05:31N 49°51' W 002°43'  

Dump ship's entire track history